sensor_id;sensor_type;location;lat;lon;timestamp;P1;durP1;ratioP1;P2;durP2;ratioP2
18387;SDS011;9320;50.256;19.026;2023-07-13T00:00:55;8.55;;;6.05;;
18387;SDS011;9320;50.256;19.026;2023-07-13T00:03:23;6.85;;;5.60;;
18387;SDS011;9320;50.256;19.026;2023-07-13T00:05:59;6.28;;;5.68;;
18387;SDS011;9320;50.256;19.026;2023-07-13T00:08:29;6.15;;;5.45;;
18387;SDS011;9320;50.256;19.026;2023-07-13T00:10:59;6.10;;;5.50;;
18387;SDS011;9320;50.256;19.026;2023-07-13T00:13:27;5.97;;;5.38;;
18387;SDS011;9320;50.256;19.026;2023-07-13T00:15:56;5.78;;;5.25;;
18387;SDS011;9320;50.256;19.026;2023-07-13T00:18:25;6.63;;;5.40;;
18387;SDS011;9320;50.256;19.026;2023-07-13T00:20:56;5.97;;;5.38;;
18387;SDS011;9320;50.256;19.026;2023-07-13T00:23:31;6.10;;;5.50;;
18387;SDS011;9320;50.256;19.026;2023-07-13T00:26:01;6.68;;;5.20;;
18387;SDS011;9320;50.256;19.026;2023-07-13T00:28:29;6.10;;;5.50;;
18387;SDS011;9320;50.256;19.026;2023-07-13T00:30:58;5.75;;;5.20;;
18387;SDS011;9320;50.256;19.026;2023-07-13T00:33:26;7.15;;;5.35;;
18387;SDS011;9320;50.256;19.026;2023-07-13T00:35:55;5.70;;;5.18;;
18387;SDS011;9320;50.256;19.026;2023-07-13T00:38:25;6.07;;;5.30;;
18387;SDS011;9320;50.256;19.026;2023-07-13T00:40:53;5.93;;;5.40;;
18387;SDS011;9320;50.256;19.026;2023-07-13T00:43:23;5.75;;;5.25;;
18387;SDS011;9320;50.256;19.026;2023-07-13T00:46:09;7.28;;;5.30;;
18387;SDS011;9320;50.256;19.026;2023-07-13T00:48:48;5.97;;;5.38;;
18387;SDS011;9320;50.256;19.026;2023-07-13T00:51:19;7.65;;;5.22;;
18387;SDS011;9320;50.256;19.026;2023-07-13T00:53:52;5.80;;;5.20;;
18387;SDS011;9320;50.256;19.026;2023-07-13T00:56:22;5.68;;;5.18;;
18387;SDS011;9320;50.256;19.026;2023-07-13T00:58:51;6.13;;;5.15;;
18387;SDS011;9320;50.256;19.026;2023-07-13T01:01:20;5.80;;;5.20;;
18387;SDS011;9320;50.256;19.026;2023-07-13T01:03:48;5.72;;;5.18;;
18387;SDS011;9320;50.256;19.026;2023-07-13T01:06:16;6.15;;;5.55;;
18387;SDS011;9320;50.256;19.026;2023-07-13T01:08:45;8.98;;;5.60;;
18387;SDS011;9320;50.256;19.026;2023-07-13T01:11:14;7.03;;;5.55;;
18387;SDS011;9320;50.256;19.026;2023-07-13T01:13:47;7.43;;;5.47;;
18387;SDS011;9320;50.256;19.026;2023-07-13T01:16:18;7.18;;;5.80;;
18387;SDS011;9320;50.256;19.026;2023-07-13T01:18:51;7.47;;;5.80;;
18387;SDS011;9320;50.256;19.026;2023-07-13T01:21:21;5.95;;;5.35;;
18387;SDS011;9320;50.256;19.026;2023-07-13T01:23:49;6.85;;;5.45;;
18387;SDS011;9320;50.256;19.026;2023-07-13T01:26:17;8.32;;;5.55;;
18387;SDS011;9320;50.256;19.026;2023-07-13T01:28:45;7.40;;;5.25;;
18387;SDS011;9320;50.256;19.026;2023-07-13T01:31:13;6.40;;;5.38;;
18387;SDS011;9320;50.256;19.026;2023-07-13T01:33:41;8.52;;;5.53;;
18387;SDS011;9320;50.256;19.026;2023-07-13T01:36:10;7.78;;;5.90;;
18387;SDS011;9320;50.256;19.026;2023-07-13T01:38:41;7.55;;;6.07;;
18387;SDS011;9320;50.256;19.026;2023-07-13T01:41:10;10.57;;;6.07;;
18387;SDS011;9320;50.256;19.026;2023-07-13T01:43:38;7.22;;;5.63;;
18387;SDS011;9320;50.256;19.026;2023-07-13T01:46:06;8.50;;;6.20;;
18387;SDS011;9320;50.256;19.026;2023-07-13T01:48:48;6.82;;;5.60;;
18387;SDS011;9320;50.256;19.026;2023-07-13T01:51:17;7.32;;;5.95;;
18387;SDS011;9320;50.256;19.026;2023-07-13T01:53:47;11.45;;;5.93;;
18387;SDS011;9320;50.256;19.026;2023-07-13T01:56:16;8.82;;;5.68;;
18387;SDS011;9320;50.256;19.026;2023-07-13T01:58:44;9.10;;;5.95;;
18387;SDS011;9320;50.256;19.026;2023-07-13T02:01:12;8.40;;;6.05;;
18387;SDS011;9320;50.256;19.026;2023-07-13T02:03:41;9.18;;;6.10;;
18387;SDS011;9320;50.256;19.026;2023-07-13T02:06:09;7.43;;;5.70;;
18387;SDS011;9320;50.256;19.026;2023-07-13T02:08:37;7.55;;;6.18;;
18387;SDS011;9320;50.256;19.026;2023-07-13T02:11:09;6.65;;;5.35;;
18387;SDS011;9320;50.256;19.026;2023-07-13T02:13:37;5.90;;;5.10;;
18387;SDS011;9320;50.256;19.026;2023-07-13T02:16:05;6.90;;;5.40;;
18387;SDS011;9320;50.256;19.026;2023-07-13T02:18:34;7.80;;;5.47;;
18387;SDS011;9320;50.256;19.026;2023-07-13T02:21:02;6.60;;;5.00;;
18387;SDS011;9320;50.256;19.026;2023-07-13T02:23:30;7.93;;;5.55;;
18387;SDS011;9320;50.256;19.026;2023-07-13T02:25:58;8.20;;;5.20;;
18387;SDS011;9320;50.256;19.026;2023-07-13T02:28:30;6.53;;;4.97;;
18387;SDS011;9320;50.256;19.026;2023-07-13T02:31:03;8.07;;;5.10;;
18387;SDS011;9320;50.256;19.026;2023-07-13T02:33:32;6.22;;;5.00;;
18387;SDS011;9320;50.256;19.026;2023-07-13T02:36:00;6.18;;;5.10;;
18387;SDS011;9320;50.256;19.026;2023-07-13T02:38:29;7.85;;;5.25;;
18387;SDS011;9320;50.256;19.026;2023-07-13T02:40:59;6.57;;;5.07;;
18387;SDS011;9320;50.256;19.026;2023-07-13T02:43:29;9.40;;;5.22;;
18387;SDS011;9320;50.256;19.026;2023-07-13T02:45:58;7.13;;;4.70;;
18387;SDS011;9320;50.256;19.026;2023-07-13T02:48:30;6.72;;;4.85;;
18387;SDS011;9320;50.256;19.026;2023-07-13T02:50:58;8.73;;;5.50;;
18387;SDS011;9320;50.256;19.026;2023-07-13T02:53:26;5.70;;;5.10;;
18387;SDS011;9320;50.256;19.026;2023-07-13T02:55:54;7.15;;;5.70;;
18387;SDS011;9320;50.256;19.026;2023-07-13T02:58:23;6.38;;;5.57;;
18387;SDS011;9320;50.256;19.026;2023-07-13T03:00:52;8.25;;;5.90;;
18387;SDS011;9320;50.256;19.026;2023-07-13T03:03:20;8.20;;;6.20;;
18387;SDS011;9320;50.256;19.026;2023-07-13T03:05:57;8.57;;;5.97;;
18387;SDS011;9320;50.256;19.026;2023-07-13T03:08:26;8.20;;;6.28;;
18387;SDS011;9320;50.256;19.026;2023-07-13T03:10:58;10.70;;;6.38;;
18387;SDS011;9320;50.256;19.026;2023-07-13T03:13:27;9.43;;;6.10;;
18387;SDS011;9320;50.256;19.026;2023-07-13T03:15:57;9.02;;;6.30;;
18387;SDS011;9320;50.256;19.026;2023-07-13T03:18:25;10.10;;;6.22;;
18387;SDS011;9320;50.256;19.026;2023-07-13T03:20:53;7.78;;;6.30;;
18387;SDS011;9320;50.256;19.026;2023-07-13T03:23:21;7.97;;;6.07;;
18387;SDS011;9320;50.256;19.026;2023-07-13T03:26:00;8.32;;;6.40;;
18387;SDS011;9320;50.256;19.026;2023-07-13T03:28:29;8.73;;;6.65;;
18387;SDS011;9320;50.256;19.026;2023-07-13T03:31:02;7.82;;;5.95;;
18387;SDS011;9320;50.256;19.026;2023-07-13T03:33:32;8.50;;;6.40;;
18387;SDS011;9320;50.256;19.026;2023-07-13T03:36:01;10.43;;;6.70;;
18387;SDS011;9320;50.256;19.026;2023-07-13T03:38:30;10.35;;;7.18;;
18387;SDS011;9320;50.256;19.026;2023-07-13T03:40:58;7.13;;;6.22;;
18387;SDS011;9320;50.256;19.026;2023-07-13T03:43:26;10.55;;;7.05;;
18387;SDS011;9320;50.256;19.026;2023-07-13T03:45:54;8.98;;;6.90;;
18387;SDS011;9320;50.256;19.026;2023-07-13T03:48:24;8.93;;;6.60;;
18387;SDS011;9320;50.256;19.026;2023-07-13T03:50:52;7.78;;;6.13;;
18387;SDS011;9320;50.256;19.026;2023-07-13T03:53:20;9.60;;;6.72;;
18387;SDS011;9320;50.256;19.026;2023-07-13T03:55:48;8.30;;;6.40;;
18387;SDS011;9320;50.256;19.026;2023-07-13T03:58:23;8.85;;;6.60;;
18387;SDS011;9320;50.256;19.026;2023-07-13T04:00:54;9.13;;;7.10;;
18387;SDS011;9320;50.256;19.026;2023-07-13T04:03:24;8.98;;;6.90;;
18387;SDS011;9320;50.256;19.026;2023-07-13T04:05:54;9.98;;;7.03;;
18387;SDS011;9320;50.256;19.026;2023-07-13T04:08:26;8.75;;;7.15;;
18387;SDS011;9320;50.256;19.026;2023-07-13T04:10:55;8.88;;;7.60;;
18387;SDS011;9320;50.256;19.026;2023-07-13T04:13:23;8.15;;;7.15;;
18387;SDS011;9320;50.256;19.026;2023-07-13T04:15:52;7.53;;;6.72;;
18387;SDS011;9320;50.256;19.026;2023-07-13T04:18:20;10.70;;;7.53;;
18387;SDS011;9320;50.256;19.026;2023-07-13T04:20:50;8.73;;;6.88;;
18387;SDS011;9320;50.256;19.026;2023-07-13T04:23:18;8.95;;;6.95;;
18387;SDS011;9320;50.256;19.026;2023-07-13T04:25:47;10.50;;;7.30;;
18387;SDS011;9320;50.256;19.026;2023-07-13T04:28:19;10.50;;;7.07;;
18387;SDS011;9320;50.256;19.026;2023-07-13T04:30:48;8.75;;;7.20;;
18387;SDS011;9320;50.256;19.026;2023-07-13T04:33:16;7.97;;;7.18;;
18387;SDS011;9320;50.256;19.026;2023-07-13T04:35:48;8.85;;;7.28;;
18387;SDS011;9320;50.256;19.026;2023-07-13T04:38:20;8.20;;;7.40;;
18387;SDS011;9320;50.256;19.026;2023-07-13T04:40:50;9.07;;;7.47;;
18387;SDS011;9320;50.256;19.026;2023-07-13T04:43:19;8.02;;;7.10;;
18387;SDS011;9320;50.256;19.026;2023-07-13T04:45:47;8.43;;;7.40;;
18387;SDS011;9320;50.256;19.026;2023-07-13T04:48:15;9.45;;;7.60;;
18387;SDS011;9320;50.256;19.026;2023-07-13T04:50:43;8.63;;;7.30;;
18387;SDS011;9320;50.256;19.026;2023-07-13T04:53:12;8.93;;;7.63;;
18387;SDS011;9320;50.256;19.026;2023-07-13T04:55:40;8.63;;;7.53;;
18387;SDS011;9320;50.256;19.026;2023-07-13T04:58:08;9.02;;;8.13;;
18387;SDS011;9320;50.256;19.026;2023-07-13T05:00:36;8.07;;;7.28;;
18387;SDS011;9320;50.256;19.026;2023-07-13T05:03:04;11.15;;;8.52;;
18387;SDS011;9320;50.256;19.026;2023-07-13T05:05:33;9.85;;;8.32;;
18387;SDS011;9320;50.256;19.026;2023-07-13T05:08:01;10.70;;;8.55;;
18387;SDS011;9320;50.256;19.026;2023-07-13T05:10:30;9.48;;;8.52;;
18387;SDS011;9320;50.256;19.026;2023-07-13T05:12:58;9.15;;;8.25;;
18387;SDS011;9320;50.256;19.026;2023-07-13T05:15:26;13.40;;;8.70;;
18387;SDS011;9320;50.256;19.026;2023-07-13T05:17:55;13.05;;;7.95;;
18387;SDS011;9320;50.256;19.026;2023-07-13T05:20:23;11.13;;;8.48;;
18387;SDS011;9320;50.256;19.026;2023-07-13T05:22:51;10.07;;;9.05;;
18387;SDS011;9320;50.256;19.026;2023-07-13T05:25:19;9.90;;;8.68;;
18387;SDS011;9320;50.256;19.026;2023-07-13T05:27:48;10.75;;;8.60;;
18387;SDS011;9320;50.256;19.026;2023-07-13T05:30:16;10.45;;;8.95;;
18387;SDS011;9320;50.256;19.026;2023-07-13T05:32:44;10.65;;;7.93;;
18387;SDS011;9320;50.256;19.026;2023-07-13T05:35:13;14.45;;;9.30;;
18387;SDS011;9320;50.256;19.026;2023-07-13T05:37:41;14.07;;;8.68;;
18387;SDS011;9320;50.256;19.026;2023-07-13T05:40:09;11.55;;;8.80;;
18387;SDS011;9320;50.256;19.026;2023-07-13T05:42:37;13.10;;;8.68;;
18387;SDS011;9320;50.256;19.026;2023-07-13T05:45:07;10.55;;;8.82;;
18387;SDS011;9320;50.256;19.026;2023-07-13T05:47:36;11.88;;;8.63;;
18387;SDS011;9320;50.256;19.026;2023-07-13T05:50:04;14.18;;;8.85;;
18387;SDS011;9320;50.256;19.026;2023-07-13T05:52:33;18.10;;;10.02;;
18387;SDS011;9320;50.256;19.026;2023-07-13T05:55:01;14.65;;;9.73;;
18387;SDS011;9320;50.256;19.026;2023-07-13T05:57:29;12.25;;;9.07;;
18387;SDS011;9320;50.256;19.026;2023-07-13T05:59:58;14.70;;;9.48;;
18387;SDS011;9320;50.256;19.026;2023-07-13T06:02:27;15.98;;;9.98;;
18387;SDS011;9320;50.256;19.026;2023-07-13T06:04:55;14.90;;;9.63;;
18387;SDS011;9320;50.256;19.026;2023-07-13T06:07:23;16.63;;;10.13;;
18387;SDS011;9320;50.256;19.026;2023-07-13T06:09:51;13.80;;;9.00;;
18387;SDS011;9320;50.256;19.026;2023-07-13T06:12:19;10.35;;;8.60;;
18387;SDS011;9320;50.256;19.026;2023-07-13T06:14:47;15.15;;;8.70;;
18387;SDS011;9320;50.256;19.026;2023-07-13T06:17:15;12.63;;;9.32;;
18387;SDS011;9320;50.256;19.026;2023-07-13T06:19:45;11.20;;;9.23;;
18387;SDS011;9320;50.256;19.026;2023-07-13T06:22:13;11.40;;;9.27;;
18387;SDS011;9320;50.256;19.026;2023-07-13T06:24:42;10.23;;;8.65;;
18387;SDS011;9320;50.256;19.026;2023-07-13T06:27:10;10.35;;;8.80;;
18387;SDS011;9320;50.256;19.026;2023-07-13T06:29:37;10.85;;;8.75;;
18387;SDS011;9320;50.256;19.026;2023-07-13T06:32:07;11.02;;;8.75;;
18387;SDS011;9320;50.256;19.026;2023-07-13T06:34:35;10.35;;;9.15;;
18387;SDS011;9320;50.256;19.026;2023-07-13T06:37:08;11.15;;;8.55;;
18387;SDS011;9320;50.256;19.026;2023-07-13T06:39:37;11.07;;;8.90;;
18387;SDS011;9320;50.256;19.026;2023-07-13T06:42:05;12.10;;;8.73;;
18387;SDS011;9320;50.256;19.026;2023-07-13T06:44:34;9.65;;;8.60;;
18387;SDS011;9320;50.256;19.026;2023-07-13T06:47:02;10.93;;;9.38;;
18387;SDS011;9320;50.256;19.026;2023-07-13T06:49:30;10.88;;;9.35;;
18387;SDS011;9320;50.256;19.026;2023-07-13T06:51:58;13.38;;;9.20;;
18387;SDS011;9320;50.256;19.026;2023-07-13T06:54:28;16.95;;;10.25;;
18387;SDS011;9320;50.256;19.026;2023-07-13T06:56:56;11.38;;;9.30;;
18387;SDS011;9320;50.256;19.026;2023-07-13T06:59:24;12.65;;;8.60;;
18387;SDS011;9320;50.256;19.026;2023-07-13T07:01:52;16.88;;;9.60;;
18387;SDS011;9320;50.256;19.026;2023-07-13T07:04:20;12.95;;;8.98;;
18387;SDS011;9320;50.256;19.026;2023-07-13T07:06:48;12.43;;;9.40;;
18387;SDS011;9320;50.256;19.026;2023-07-13T07:09:16;14.48;;;9.13;;
18387;SDS011;9320;50.256;19.026;2023-07-13T07:11:45;12.30;;;9.43;;
18387;SDS011;9320;50.256;19.026;2023-07-13T07:14:29;15.55;;;9.00;;
18387;SDS011;9320;50.256;19.026;2023-07-13T07:16:57;14.07;;;8.73;;
18387;SDS011;9320;50.256;19.026;2023-07-13T07:19:27;13.65;;;9.23;;
18387;SDS011;9320;50.256;19.026;2023-07-13T07:21:57;10.25;;;8.95;;
18387;SDS011;9320;50.256;19.026;2023-07-13T07:24:25;10.35;;;8.80;;
18387;SDS011;9320;50.256;19.026;2023-07-13T07:26:54;9.85;;;8.85;;
18387;SDS011;9320;50.256;19.026;2023-07-13T07:29:25;12.73;;;8.90;;
18387;SDS011;9320;50.256;19.026;2023-07-13T07:31:57;12.85;;;8.93;;
18387;SDS011;9320;50.256;19.026;2023-07-13T07:34:43;10.85;;;8.40;;
18387;SDS011;9320;50.256;19.026;2023-07-13T07:37:11;11.02;;;8.57;;
18387;SDS011;9320;50.256;19.026;2023-07-13T07:39:44;10.50;;;9.05;;
18387;SDS011;9320;50.256;19.026;2023-07-13T07:42:34;12.73;;;8.80;;
18387;SDS011;9320;50.256;19.026;2023-07-13T07:45:02;11.10;;;8.57;;
18387;SDS011;9320;50.256;19.026;2023-07-13T07:47:30;12.43;;;8.93;;
18387;SDS011;9320;50.256;19.026;2023-07-13T07:49:58;10.15;;;8.38;;
18387;SDS011;9320;50.256;19.026;2023-07-13T07:52:26;12.18;;;8.52;;
18387;SDS011;9320;50.256;19.026;2023-07-13T07:54:55;10.55;;;8.50;;
18387;SDS011;9320;50.256;19.026;2023-07-13T07:57:44;12.43;;;8.38;;
18387;SDS011;9320;50.256;19.026;2023-07-13T08:00:15;9.98;;;7.93;;
18387;SDS011;9320;50.256;19.026;2023-07-13T08:02:46;9.05;;;6.82;;
18387;SDS011;9320;50.256;19.026;2023-07-13T08:05:18;9.75;;;8.30;;
18387;SDS011;9320;50.256;19.026;2023-07-13T08:08:04;11.70;;;8.80;;
18387;SDS011;9320;50.256;19.026;2023-07-13T08:10:34;12.30;;;8.63;;
18387;SDS011;9320;50.256;19.026;2023-07-13T08:13:05;11.13;;;9.65;;
18387;SDS011;9320;50.256;19.026;2023-07-13T08:15:37;12.23;;;9.05;;
18387;SDS011;9320;50.256;19.026;2023-07-13T08:18:06;14.40;;;9.35;;
18387;SDS011;9320;50.256;19.026;2023-07-13T08:20:36;13.00;;;9.90;;
18387;SDS011;9320;50.256;19.026;2023-07-13T08:23:05;12.75;;;10.23;;
18387;SDS011;9320;50.256;19.026;2023-07-13T08:25:34;12.32;;;10.30;;
18387;SDS011;9320;50.256;19.026;2023-07-13T08:28:02;14.48;;;9.38;;
18387;SDS011;9320;50.256;19.026;2023-07-13T08:30:32;17.70;;;10.38;;
18387;SDS011;9320;50.256;19.026;2023-07-13T08:33:00;10.77;;;8.85;;
18387;SDS011;9320;50.256;19.026;2023-07-13T08:35:28;11.57;;;9.15;;
18387;SDS011;9320;50.256;19.026;2023-07-13T08:37:56;18.63;;;10.43;;
18387;SDS011;9320;50.256;19.026;2023-07-13T08:40:24;15.43;;;9.93;;
18387;SDS011;9320;50.256;19.026;2023-07-13T08:42:54;12.77;;;9.43;;
18387;SDS011;9320;50.256;19.026;2023-07-13T08:45:28;12.25;;;8.48;;
18387;SDS011;9320;50.256;19.026;2023-07-13T08:48:02;12.88;;;8.52;;
18387;SDS011;9320;50.256;19.026;2023-07-13T08:50:38;10.38;;;7.95;;
18387;SDS011;9320;50.256;19.026;2023-07-13T08:53:29;9.43;;;7.32;;
18387;SDS011;9320;50.256;19.026;2023-07-13T08:56:03;11.10;;;7.13;;
18387;SDS011;9320;50.256;19.026;2023-07-13T08:58:38;8.30;;;7.00;;
18387;SDS011;9320;50.256;19.026;2023-07-13T09:01:11;7.80;;;7.00;;
18387;SDS011;9320;50.256;19.026;2023-07-13T09:03:50;8.60;;;7.10;;
18387;SDS011;9320;50.256;19.026;2023-07-13T09:06:27;10.68;;;7.47;;
18387;SDS011;9320;50.256;19.026;2023-07-13T09:09:01;10.90;;;8.18;;
18387;SDS011;9320;50.256;19.026;2023-07-13T09:11:36;13.70;;;8.45;;
18387;SDS011;9320;50.256;19.026;2023-07-13T09:17:10;13.13;;;9.10;;
18387;SDS011;9320;50.256;19.026;2023-07-13T09:19:42;10.77;;;8.50;;
18387;SDS011;9320;50.256;19.026;2023-07-13T09:22:14;9.45;;;7.45;;
18387;SDS011;9320;50.256;19.026;2023-07-13T09:24:51;11.50;;;8.18;;
18387;SDS011;9320;50.256;19.026;2023-07-13T09:27:23;13.23;;;8.30;;
18387;SDS011;9320;50.256;19.026;2023-07-13T09:29:57;13.13;;;8.95;;
18387;SDS011;9320;50.256;19.026;2023-07-13T09:32:48;10.50;;;8.60;;
18387;SDS011;9320;50.256;19.026;2023-07-13T09:35:20;11.40;;;8.55;;
18387;SDS011;9320;50.256;19.026;2023-07-13T09:37:57;14.68;;;9.18;;
18387;SDS011;9320;50.256;19.026;2023-07-13T09:40:30;18.98;;;9.77;;
18387;SDS011;9320;50.256;19.026;2023-07-13T09:43:06;16.05;;;10.23;;
18387;SDS011;9320;50.256;19.026;2023-07-13T09:45:38;13.15;;;9.30;;
18387;SDS011;9320;50.256;19.026;2023-07-13T09:48:11;12.20;;;9.15;;
18387;SDS011;9320;50.256;19.026;2023-07-13T09:50:40;42.60;;;13.02;;
18387;SDS011;9320;50.256;19.026;2023-07-13T09:53:12;24.70;;;10.73;;
18387;SDS011;9320;50.256;19.026;2023-07-13T09:55:42;16.45;;;9.68;;
18387;SDS011;9320;50.256;19.026;2023-07-13T09:58:13;14.05;;;11.30;;
18387;SDS011;9320;50.256;19.026;2023-07-13T10:00:43;15.95;;;9.40;;
18387;SDS011;9320;50.256;19.026;2023-07-13T10:03:22;11.02;;;8.40;;
18387;SDS011;9320;50.256;19.026;2023-07-13T10:05:52;9.50;;;7.30;;
18387;SDS011;9320;50.256;19.026;2023-07-13T10:08:21;8.48;;;6.43;;
18387;SDS011;9320;50.256;19.026;2023-07-13T10:10:57;11.65;;;6.78;;
18387;SDS011;9320;50.256;19.026;2023-07-13T10:13:31;8.82;;;6.43;;
18387;SDS011;9320;50.256;19.026;2023-07-13T10:16:04;10.20;;;7.10;;
18387;SDS011;9320;50.256;19.026;2023-07-13T10:18:41;10.93;;;7.63;;
18387;SDS011;9320;50.256;19.026;2023-07-13T10:21:13;8.23;;;7.40;;
18387;SDS011;9320;50.256;19.026;2023-07-13T10:23:47;9.60;;;6.18;;
18387;SDS011;9320;50.256;19.026;2023-07-13T10:26:20;8.15;;;6.65;;
18387;SDS011;9320;50.256;19.026;2023-07-13T10:28:52;6.40;;;5.80;;
18387;SDS011;9320;50.256;19.026;2023-07-13T10:31:22;8.15;;;6.00;;
18387;SDS011;9320;50.256;19.026;2023-07-13T10:33:52;7.15;;;6.43;;
18387;SDS011;9320;50.256;19.026;2023-07-13T10:36:29;9.57;;;6.80;;
18387;SDS011;9320;50.256;19.026;2023-07-13T10:39:01;6.78;;;6.10;;
18387;SDS011;9320;50.256;19.026;2023-07-13T10:41:33;6.93;;;6.18;;
18387;SDS011;9320;50.256;19.026;2023-07-13T10:44:05;7.05;;;5.55;;
18387;SDS011;9320;50.256;19.026;2023-07-13T10:46:41;6.75;;;6.03;;
18387;SDS011;9320;50.256;19.026;2023-07-13T10:49:12;7.47;;;6.00;;
18387;SDS011;9320;50.256;19.026;2023-07-13T10:51:41;8.32;;;5.53;;
18387;SDS011;9320;50.256;19.026;2023-07-13T10:54:11;7.47;;;5.50;;
18387;SDS011;9320;50.256;19.026;2023-07-13T10:56:46;7.57;;;5.38;;
18387;SDS011;9320;50.256;19.026;2023-07-13T10:59:18;7.00;;;4.82;;
18387;SDS011;9320;50.256;19.026;2023-07-13T11:01:55;5.30;;;4.80;;
18387;SDS011;9320;50.256;19.026;2023-07-13T11:04:27;7.35;;;4.80;;
18387;SDS011;9320;50.256;19.026;2023-07-13T11:06:58;6.50;;;5.05;;
18387;SDS011;9320;50.256;19.026;2023-07-13T11:09:37;6.32;;;4.55;;
18387;SDS011;9320;50.256;19.026;2023-07-13T11:12:08;6.32;;;4.70;;
18387;SDS011;9320;50.256;19.026;2023-07-13T11:15:09;5.40;;;4.88;;
18387;SDS011;9320;50.256;19.026;2023-07-13T11:17:49;6.80;;;4.95;;
18387;SDS011;9320;50.256;19.026;2023-07-13T11:20:33;12.00;;;4.85;;
18387;SDS011;9320;50.256;19.026;2023-07-13T11:23:17;5.95;;;4.68;;
18387;SDS011;9320;50.256;19.026;2023-07-13T11:25:47;7.28;;;4.55;;
18387;SDS011;9320;50.256;19.026;2023-07-13T11:28:16;7.13;;;5.43;;
18387;SDS011;9320;50.256;19.026;2023-07-13T11:30:49;9.13;;;6.00;;
18387;SDS011;9320;50.256;19.026;2023-07-13T11:33:47;8.27;;;5.75;;
18387;SDS011;9320;50.256;19.026;2023-07-13T11:36:22;9.93;;;5.20;;
18387;SDS011;9320;50.256;19.026;2023-07-13T11:38:56;7.32;;;4.78;;
18387;SDS011;9320;50.256;19.026;2023-07-13T11:41:29;6.72;;;5.07;;
18387;SDS011;9320;50.256;19.026;2023-07-13T11:44:06;7.70;;;4.88;;
18387;SDS011;9320;50.256;19.026;2023-07-13T11:46:37;5.93;;;4.68;;
18387;SDS011;9320;50.256;19.026;2023-07-13T11:49:06;6.25;;;4.30;;
18387;SDS011;9320;50.256;19.026;2023-07-13T11:51:36;6.03;;;4.22;;
18387;SDS011;9320;50.256;19.026;2023-07-13T11:54:05;5.20;;;4.70;;
18387;SDS011;9320;50.256;19.026;2023-07-13T11:56:40;6.95;;;4.40;;
18387;SDS011;9320;50.256;19.026;2023-07-13T11:59:10;5.60;;;4.25;;
18387;SDS011;9320;50.256;19.026;2023-07-13T12:01:42;6.00;;;4.57;;
18387;SDS011;9320;50.256;19.026;2023-07-13T12:04:14;5.05;;;4.55;;
18387;SDS011;9320;50.256;19.026;2023-07-13T12:06:58;5.07;;;4.20;;
18387;SDS011;9320;50.256;19.026;2023-07-13T12:09:33;4.95;;;4.55;;
18387;SDS011;9320;50.256;19.026;2023-07-13T12:12:03;6.00;;;5.32;;
18387;SDS011;9320;50.256;19.026;2023-07-13T12:14:37;8.73;;;6.35;;
18387;SDS011;9320;50.256;19.026;2023-07-13T12:17:08;6.75;;;5.70;;
18387;SDS011;9320;50.256;19.026;2023-07-13T12:19:39;10.13;;;6.25;;
18387;SDS011;9320;50.256;19.026;2023-07-13T12:22:10;7.03;;;6.28;;
18387;SDS011;9320;50.256;19.026;2023-07-13T12:24:40;7.50;;;6.07;;
18387;SDS011;9320;50.256;19.026;2023-07-13T12:27:15;7.35;;;5.47;;
18387;SDS011;9320;50.256;19.026;2023-07-13T12:29:50;5.97;;;5.38;;
18387;SDS011;9320;50.256;19.026;2023-07-13T12:32:21;5.80;;;5.13;;
18387;SDS011;9320;50.256;19.026;2023-07-13T12:34:52;5.97;;;5.25;;
18387;SDS011;9320;50.256;19.026;2023-07-13T12:37:23;6.05;;;5.55;;
18387;SDS011;9320;50.256;19.026;2023-07-13T12:39:52;5.65;;;5.07;;
18387;SDS011;9320;50.256;19.026;2023-07-13T12:42:21;6.95;;;5.55;;
18387;SDS011;9320;50.256;19.026;2023-07-13T12:44:54;5.60;;;5.10;;
18387;SDS011;9320;50.256;19.026;2023-07-13T12:47:26;7.75;;;5.50;;
18387;SDS011;9320;50.256;19.026;2023-07-13T12:49:56;8.25;;;5.82;;
18387;SDS011;9320;50.256;19.026;2023-07-13T12:52:29;6.85;;;5.90;;
18387;SDS011;9320;50.256;19.026;2023-07-13T12:55:03;9.05;;;5.63;;
18387;SDS011;9320;50.256;19.026;2023-07-13T12:57:38;10.73;;;5.72;;
18387;SDS011;9320;50.256;19.026;2023-07-13T13:00:14;7.38;;;6.68;;
18387;SDS011;9320;50.256;19.026;2023-07-13T13:02:52;11.05;;;9.15;;
18387;SDS011;9320;50.256;19.026;2023-07-13T13:05:43;10.00;;;8.98;;
18387;SDS011;9320;50.256;19.026;2023-07-13T13:08:13;8.77;;;7.95;;
18387;SDS011;9320;50.256;19.026;2023-07-13T13:10:42;8.80;;;7.28;;
18387;SDS011;9320;50.256;19.026;2023-07-13T13:13:12;7.22;;;6.40;;
18387;SDS011;9320;50.256;19.026;2023-07-13T13:15:40;7.05;;;6.35;;
18387;SDS011;9320;50.256;19.026;2023-07-13T13:18:13;9.05;;;6.22;;
18387;SDS011;9320;50.256;19.026;2023-07-13T13:20:43;8.95;;;8.02;;
18387;SDS011;9320;50.256;19.026;2023-07-13T13:23:14;8.93;;;8.02;;
18387;SDS011;9320;50.256;19.026;2023-07-13T13:25:46;11.00;;;8.30;;
18387;SDS011;9320;50.256;19.026;2023-07-13T13:28:16;9.30;;;8.40;;
18387;SDS011;9320;50.256;19.026;2023-07-13T13:30:46;9.10;;;8.20;;
18387;SDS011;9320;50.256;19.026;2023-07-13T13:33:17;8.80;;;7.95;;
18387;SDS011;9320;50.256;19.026;2023-07-13T13:35:46;7.82;;;7.13;;
18387;SDS011;9320;50.256;19.026;2023-07-13T13:38:16;8.00;;;7.30;;
18387;SDS011;9320;50.256;19.026;2023-07-13T13:40:46;8.07;;;7.07;;
18387;SDS011;9320;50.256;19.026;2023-07-13T13:43:15;8.80;;;7.63;;
18387;SDS011;9320;50.256;19.026;2023-07-13T13:45:44;10.48;;;8.10;;
18387;SDS011;9320;50.256;19.026;2023-07-13T13:48:14;7.68;;;6.88;;
18387;SDS011;9320;50.256;19.026;2023-07-13T13:50:44;6.93;;;6.25;;
18387;SDS011;9320;50.256;19.026;2023-07-13T13:53:12;6.30;;;5.70;;
18387;SDS011;9320;50.256;19.026;2023-07-13T13:55:42;8.15;;;6.13;;
18387;SDS011;9320;50.256;19.026;2023-07-13T13:58:10;6.82;;;5.85;;
18387;SDS011;9320;50.256;19.026;2023-07-13T14:00:38;8.77;;;6.55;;
18387;SDS011;9320;50.256;19.026;2023-07-13T14:03:08;9.35;;;6.32;;
18387;SDS011;9320;50.256;19.026;2023-07-13T14:05:43;7.18;;;6.43;;
18387;SDS011;9320;50.256;19.026;2023-07-13T14:08:14;7.63;;;6.78;;
18387;SDS011;9320;50.256;19.026;2023-07-13T14:10:44;8.27;;;6.68;;
18387;SDS011;9320;50.256;19.026;2023-07-13T14:13:16;7.82;;;6.60;;
18387;SDS011;9320;50.256;19.026;2023-07-13T14:15:46;7.03;;;6.40;;
18387;SDS011;9320;50.256;19.026;2023-07-13T14:18:14;7.70;;;6.90;;
18387;SDS011;9320;50.256;19.026;2023-07-13T14:20:45;7.07;;;6.38;;
18387;SDS011;9320;50.256;19.026;2023-07-13T14:23:13;8.63;;;6.25;;
18387;SDS011;9320;50.256;19.026;2023-07-13T14:25:45;6.05;;;5.55;;
18387;SDS011;9320;50.256;19.026;2023-07-13T14:28:18;5.95;;;5.45;;
18387;SDS011;9320;50.256;19.026;2023-07-13T14:30:48;6.63;;;5.85;;
18387;SDS011;9320;50.256;19.026;2023-07-13T14:33:17;9.23;;;6.05;;
18387;SDS011;9320;50.256;19.026;2023-07-13T14:35:46;8.70;;;6.45;;
18387;SDS011;9320;50.256;19.026;2023-07-13T14:38:16;9.60;;;6.07;;
18387;SDS011;9320;50.256;19.026;2023-07-13T14:40:48;7.95;;;6.13;;
18387;SDS011;9320;50.256;19.026;2023-07-13T14:43:17;7.45;;;6.10;;
18387;SDS011;9320;50.256;19.026;2023-07-13T14:45:46;8.15;;;5.93;;
18387;SDS011;9320;50.256;19.026;2023-07-13T14:48:17;7.10;;;6.40;;
18387;SDS011;9320;50.256;19.026;2023-07-13T14:50:49;6.70;;;6.10;;
18387;SDS011;9320;50.256;19.026;2023-07-13T14:53:20;11.40;;;5.68;;
18387;SDS011;9320;50.256;19.026;2023-07-13T14:55:50;5.90;;;5.40;;
18387;SDS011;9320;50.256;19.026;2023-07-13T14:58:18;7.25;;;5.75;;
18387;SDS011;9320;50.256;19.026;2023-07-13T15:00:46;6.03;;;5.43;;
18387;SDS011;9320;50.256;19.026;2023-07-13T15:03:17;7.55;;;5.93;;
18387;SDS011;9320;50.256;19.026;2023-07-13T15:05:49;6.40;;;5.80;;
18387;SDS011;9320;50.256;19.026;2023-07-13T15:08:17;6.10;;;5.50;;